sensor_id;sensor_type;location;lat;lon;timestamp;P1;durP1;ratioP1;P2;durP2;ratioP2
8413;SDS011;4244;48.684;9.028;2023-12-20T00:01:46;1.23;;;0.90;;
8413;SDS011;4244;48.684;9.028;2023-12-20T00:04:12;1.60;;;1.17;;
8413;SDS011;4244;48.684;9.028;2023-12-20T00:06:37;1.53;;;1.10;;
8413;SDS011;4244;48.684;9.028;2023-12-20T00:09:03;1.37;;;1.10;;
8413;SDS011;4244;48.684;9.028;2023-12-20T00:11:28;1.30;;;0.97;;
8413;SDS011;4244;48.684;9.028;2023-12-20T00:13:54;3.30;;;1.10;;
8413;SDS011;4244;48.684;9.028;2023-12-20T00:16:19;1.67;;;1.27;;
8413;SDS011;4244;48.684;9.028;2023-12-20T00:18:45;2.07;;;1.23;;
8413;SDS011;4244;48.684;9.028;2023-12-20T00:21:10;1.67;;;1.20;;
8413;SDS011;4244;48.684;9.028;2023-12-20T00:23:36;1.37;;;1.10;;
8413;SDS011;4244;48.684;9.028;2023-12-20T00:26:01;1.53;;;1.10;;
8413;SDS011;4244;48.684;9.028;2023-12-20T00:28:27;1.23;;;1.03;;
8413;SDS011;4244;48.684;9.028;2023-12-20T00:30:53;1.63;;;1.20;;
8413;SDS011;4244;48.684;9.028;2023-12-20T00:33:18;1.17;;;0.83;;
8413;SDS011;4244;48.684;9.028;2023-12-20T00:35:44;1.30;;;0.90;;
8413;SDS011;4244;48.684;9.028;2023-12-20T00:38:10;1.50;;;0.93;;
8413;SDS011;4244;48.684;9.028;2023-12-20T00:40:36;1.63;;;1.07;;
8413;SDS011;4244;48.684;9.028;2023-12-20T00:43:02;1.50;;;0.90;;
8413;SDS011;4244;48.684;9.028;2023-12-20T00:45:27;1.43;;;0.93;;
8413;SDS011;4244;48.684;9.028;2023-12-20T00:47:53;1.50;;;1.10;;
8413;SDS011;4244;48.684;9.028;2023-12-20T00:50:19;1.57;;;1.00;;
8413;SDS011;4244;48.684;9.028;2023-12-20T00:52:46;1.20;;;0.80;;
8413;SDS011;4244;48.684;9.028;2023-12-20T00:55:12;1.50;;;1.00;;
8413;SDS011;4244;48.684;9.028;2023-12-20T00:57:38;1.33;;;0.90;;
8413;SDS011;4244;48.684;9.028;2023-12-20T01:00:03;1.40;;;0.90;;
8413;SDS011;4244;48.684;9.028;2023-12-20T01:02:29;1.10;;;0.70;;
8413;SDS011;4244;48.684;9.028;2023-12-20T01:04:55;1.13;;;0.80;;
8413;SDS011;4244;48.684;9.028;2023-12-20T01:07:20;1.43;;;0.90;;
8413;SDS011;4244;48.684;9.028;2023-12-20T01:09:46;1.20;;;1.07;;
8413;SDS011;4244;48.684;9.028;2023-12-20T01:12:11;1.40;;;0.90;;
8413;SDS011;4244;48.684;9.028;2023-12-20T01:14:37;3.47;;;0.87;;
8413;SDS011;4244;48.684;9.028;2023-12-20T01:17:04;1.70;;;1.10;;
8413;SDS011;4244;48.684;9.028;2023-12-20T01:19:29;1.70;;;1.27;;
8413;SDS011;4244;48.684;9.028;2023-12-20T01:21:55;1.63;;;1.30;;
8413;SDS011;4244;48.684;9.028;2023-12-20T01:24:20;1.40;;;1.10;;
8413;SDS011;4244;48.684;9.028;2023-12-20T01:26:46;1.30;;;0.90;;
8413;SDS011;4244;48.684;9.028;2023-12-20T01:29:12;1.37;;;1.10;;
8413;SDS011;4244;48.684;9.028;2023-12-20T01:31:39;1.30;;;1.10;;
8413;SDS011;4244;48.684;9.028;2023-12-20T01:34:05;1.57;;;1.00;;
8413;SDS011;4244;48.684;9.028;2023-12-20T01:36:31;1.50;;;1.17;;
8413;SDS011;4244;48.684;9.028;2023-12-20T01:38:56;2.13;;;0.80;;
8413;SDS011;4244;48.684;9.028;2023-12-20T01:41:22;1.67;;;0.90;;
8413;SDS011;4244;48.684;9.028;2023-12-20T01:43:48;2.33;;;0.93;;
8413;SDS011;4244;48.684;9.028;2023-12-20T01:46:13;1.97;;;1.40;;
8413;SDS011;4244;48.684;9.028;2023-12-20T01:48:39;1.37;;;0.70;;
8413;SDS011;4244;48.684;9.028;2023-12-20T01:51:05;1.20;;;0.80;;
8413;SDS011;4244;48.684;9.028;2023-12-20T01:53:31;1.20;;;0.80;;
8413;SDS011;4244;48.684;9.028;2023-12-20T01:55:57;1.73;;;0.80;;
8413;SDS011;4244;48.684;9.028;2023-12-20T01:58:23;1.23;;;0.77;;
8413;SDS011;4244;48.684;9.028;2023-12-20T02:00:50;1.10;;;0.57;;
8413;SDS011;4244;48.684;9.028;2023-12-20T02:03:15;1.13;;;0.80;;
8413;SDS011;4244;48.684;9.028;2023-12-20T02:05:42;0.90;;;0.60;;
8413;SDS011;4244;48.684;9.028;2023-12-20T02:08:07;1.57;;;0.70;;
8413;SDS011;4244;48.684;9.028;2023-12-20T02:10:34;1.00;;;0.57;;
8413;SDS011;4244;48.684;9.028;2023-12-20T02:13:00;0.93;;;0.70;;
8413;SDS011;4244;48.684;9.028;2023-12-20T02:15:25;1.67;;;0.90;;
8413;SDS011;4244;48.684;9.028;2023-12-20T02:17:51;1.00;;;0.70;;
8413;SDS011;4244;48.684;9.028;2023-12-20T02:20:17;3.20;;;0.80;;
8413;SDS011;4244;48.684;9.028;2023-12-20T02:22:42;1.13;;;0.70;;
8413;SDS011;4244;48.684;9.028;2023-12-20T02:25:08;1.30;;;0.47;;
8413;SDS011;4244;48.684;9.028;2023-12-20T02:27:34;2.10;;;0.63;;
8413;SDS011;4244;48.684;9.028;2023-12-20T02:30:00;0.70;;;0.40;;
8413;SDS011;4244;48.684;9.028;2023-12-20T02:32:25;1.10;;;0.60;;
8413;SDS011;4244;48.684;9.028;2023-12-20T02:34:51;1.00;;;0.60;;
8413;SDS011;4244;48.684;9.028;2023-12-20T02:37:16;1.20;;;0.50;;
8413;SDS011;4244;48.684;9.028;2023-12-20T02:39:42;1.10;;;0.60;;
8413;SDS011;4244;48.684;9.028;2023-12-20T02:42:07;1.53;;;0.60;;
8413;SDS011;4244;48.684;9.028;2023-12-20T02:44:33;0.90;;;0.50;;
8413;SDS011;4244;48.684;9.028;2023-12-20T02:46:59;0.80;;;0.50;;
8413;SDS011;4244;48.684;9.028;2023-12-20T02:49:24;1.23;;;0.50;;
8413;SDS011;4244;48.684;9.028;2023-12-20T02:51:50;0.80;;;0.40;;
8413;SDS011;4244;48.684;9.028;2023-12-20T02:54:15;1.73;;;0.50;;
8413;SDS011;4244;48.684;9.028;2023-12-20T02:56:41;0.80;;;0.50;;
8413;SDS011;4244;48.684;9.028;2023-12-20T02:59:06;0.70;;;0.40;;
8413;SDS011;4244;48.684;9.028;2023-12-20T03:01:33;1.00;;;0.47;;
8413;SDS011;4244;48.684;9.028;2023-12-20T03:03:59;0.90;;;0.40;;
8413;SDS011;4244;48.684;9.028;2023-12-20T03:06:25;0.90;;;0.50;;
8413;SDS011;4244;48.684;9.028;2023-12-20T03:08:50;0.80;;;0.47;;
8413;SDS011;4244;48.684;9.028;2023-12-20T03:11:16;0.70;;;0.40;;
8413;SDS011;4244;48.684;9.028;2023-12-20T03:13:41;2.90;;;0.50;;
8413;SDS011;4244;48.684;9.028;2023-12-20T03:16:13;0.80;;;0.43;;
8413;SDS011;4244;48.684;9.028;2023-12-20T03:18:39;0.80;;;0.40;;
8413;SDS011;4244;48.684;9.028;2023-12-20T03:21:05;0.70;;;0.33;;
8413;SDS011;4244;48.684;9.028;2023-12-20T03:23:31;0.70;;;0.40;;
8413;SDS011;4244;48.684;9.028;2023-12-20T03:25:59;1.37;;;0.50;;
8413;SDS011;4244;48.684;9.028;2023-12-20T03:28:26;0.90;;;0.40;;
8413;SDS011;4244;48.684;9.028;2023-12-20T03:30:52;1.17;;;0.40;;
8413;SDS011;4244;48.684;9.028;2023-12-20T03:33:17;0.60;;;0.30;;
8413;SDS011;4244;48.684;9.028;2023-12-20T03:35:43;1.00;;;0.40;;
8413;SDS011;4244;48.684;9.028;2023-12-20T03:38:09;0.70;;;0.30;;
8413;SDS011;4244;48.684;9.028;2023-12-20T03:40:34;0.70;;;0.30;;
8413;SDS011;4244;48.684;9.028;2023-12-20T03:43:00;0.70;;;0.37;;
8413;SDS011;4244;48.684;9.028;2023-12-20T03:45:26;1.10;;;0.40;;
8413;SDS011;4244;48.684;9.028;2023-12-20T03:47:51;0.60;;;0.30;;
8413;SDS011;4244;48.684;9.028;2023-12-20T03:50:24;1.47;;;0.40;;
8413;SDS011;4244;48.684;9.028;2023-12-20T03:52:50;0.73;;;0.40;;
8413;SDS011;4244;48.684;9.028;2023-12-20T03:55:15;0.90;;;0.40;;
8413;SDS011;4244;48.684;9.028;2023-12-20T03:57:41;0.60;;;0.30;;
8413;SDS011;4244;48.684;9.028;2023-12-20T04:02:57;0.80;;;0.30;;
8413;SDS011;4244;48.684;9.028;2023-12-20T04:05:22;0.70;;;0.30;;
8413;SDS011;4244;48.684;9.028;2023-12-20T04:07:48;1.13;;;0.40;;
8413;SDS011;4244;48.684;9.028;2023-12-20T04:10:15;1.77;;;0.40;;
8413;SDS011;4244;48.684;9.028;2023-12-20T04:12:41;0.70;;;0.30;;
8413;SDS011;4244;48.684;9.028;2023-12-20T04:15:06;1.13;;;0.40;;
8413;SDS011;4244;48.684;9.028;2023-12-20T04:17:34;0.77;;;0.30;;
8413;SDS011;4244;48.684;9.028;2023-12-20T04:20:00;0.73;;;0.40;;
8413;SDS011;4244;48.684;9.028;2023-12-20T04:22:27;0.70;;;0.30;;
8413;SDS011;4244;48.684;9.028;2023-12-20T04:24:53;0.67;;;0.27;;
8413;SDS011;4244;48.684;9.028;2023-12-20T04:27:18;1.20;;;0.30;;
8413;SDS011;4244;48.684;9.028;2023-12-20T04:29:44;1.23;;;0.60;;
8413;SDS011;4244;48.684;9.028;2023-12-20T04:32:09;0.60;;;0.30;;
8413;SDS011;4244;48.684;9.028;2023-12-20T04:34:35;0.70;;;0.30;;
8413;SDS011;4244;48.684;9.028;2023-12-20T04:37:01;0.70;;;0.27;;
8413;SDS011;4244;48.684;9.028;2023-12-20T04:39:27;0.93;;;0.30;;
8413;SDS011;4244;48.684;9.028;2023-12-20T04:41:52;0.93;;;0.50;;
8413;SDS011;4244;48.684;9.028;2023-12-20T04:44:18;0.70;;;0.40;;
8413;SDS011;4244;48.684;9.028;2023-12-20T04:46:43;0.60;;;0.30;;
8413;SDS011;4244;48.684;9.028;2023-12-20T04:49:09;0.90;;;0.30;;
8413;SDS011;4244;48.684;9.028;2023-12-20T04:51:35;0.93;;;0.50;;
8413;SDS011;4244;48.684;9.028;2023-12-20T04:54:01;0.90;;;0.50;;
8413;SDS011;4244;48.684;9.028;2023-12-20T04:56:27;0.90;;;0.57;;
8413;SDS011;4244;48.684;9.028;2023-12-20T04:58:52;0.80;;;0.40;;
8413;SDS011;4244;48.684;9.028;2023-12-20T05:01:18;1.00;;;0.50;;
8413;SDS011;4244;48.684;9.028;2023-12-20T05:03:43;0.80;;;0.40;;
8413;SDS011;4244;48.684;9.028;2023-12-20T05:06:09;1.00;;;0.40;;
8413;SDS011;4244;48.684;9.028;2023-12-20T05:08:35;0.80;;;0.37;;
8413;SDS011;4244;48.684;9.028;2023-12-20T05:11:00;1.33;;;0.30;;
8413;SDS011;4244;48.684;9.028;2023-12-20T05:13:26;0.70;;;0.40;;
8413;SDS011;4244;48.684;9.028;2023-12-20T05:15:52;1.20;;;0.57;;
8413;SDS011;4244;48.684;9.028;2023-12-20T05:18:17;0.90;;;0.40;;
8413;SDS011;4244;48.684;9.028;2023-12-20T05:20:43;1.33;;;0.40;;
8413;SDS011;4244;48.684;9.028;2023-12-20T05:23:08;0.70;;;0.40;;
8413;SDS011;4244;48.684;9.028;2023-12-20T05:25:34;1.30;;;0.50;;
8413;SDS011;4244;48.684;9.028;2023-12-20T05:27:59;0.90;;;0.50;;
8413;SDS011;4244;48.684;9.028;2023-12-20T05:30:25;0.83;;;0.40;;
8413;SDS011;4244;48.684;9.028;2023-12-20T05:32:51;0.90;;;0.43;;
8413;SDS011;4244;48.684;9.028;2023-12-20T05:35:17;2.03;;;0.63;;
8413;SDS011;4244;48.684;9.028;2023-12-20T05:37:42;0.90;;;0.50;;
8413;SDS011;4244;48.684;9.028;2023-12-20T05:40:08;1.23;;;0.67;;
8413;SDS011;4244;48.684;9.028;2023-12-20T05:42:36;0.70;;;0.40;;
8413;SDS011;4244;48.684;9.028;2023-12-20T05:45:05;1.00;;;0.53;;
8413;SDS011;4244;48.684;9.028;2023-12-20T05:47:31;1.00;;;0.40;;
8413;SDS011;4244;48.684;9.028;2023-12-20T05:49:56;0.70;;;0.30;;
8413;SDS011;4244;48.684;9.028;2023-12-20T05:52:22;0.97;;;0.60;;
8413;SDS011;4244;48.684;9.028;2023-12-20T05:54:47;0.90;;;0.60;;
8413;SDS011;4244;48.684;9.028;2023-12-20T05:57:13;0.97;;;0.40;;
8413;SDS011;4244;48.684;9.028;2023-12-20T05:59:39;1.60;;;0.40;;
8413;SDS011;4244;48.684;9.028;2023-12-20T06:02:04;0.90;;;0.50;;
8413;SDS011;4244;48.684;9.028;2023-12-20T06:04:30;1.37;;;0.83;;
8413;SDS011;4244;48.684;9.028;2023-12-20T06:06:56;1.00;;;0.53;;
8413;SDS011;4244;48.684;9.028;2023-12-20T06:09:23;1.60;;;0.67;;
8413;SDS011;4244;48.684;9.028;2023-12-20T06:11:49;1.00;;;0.70;;
8413;SDS011;4244;48.684;9.028;2023-12-20T06:14:16;0.80;;;0.50;;
8413;SDS011;4244;48.684;9.028;2023-12-20T06:16:41;0.90;;;0.50;;
8413;SDS011;4244;48.684;9.028;2023-12-20T06:19:07;0.97;;;0.60;;
8413;SDS011;4244;48.684;9.028;2023-12-20T06:21:33;0.70;;;0.30;;
8413;SDS011;4244;48.684;9.028;2023-12-20T06:23:59;1.00;;;0.50;;
8413;SDS011;4244;48.684;9.028;2023-12-20T06:26:25;2.10;;;0.50;;
8413;SDS011;4244;48.684;9.028;2023-12-20T06:28:50;1.87;;;0.80;;
8413;SDS011;4244;48.684;9.028;2023-12-20T06:31:16;1.30;;;0.60;;
8413;SDS011;4244;48.684;9.028;2023-12-20T06:33:42;1.30;;;0.60;;
8413;SDS011;4244;48.684;9.028;2023-12-20T06:36:10;1.00;;;0.77;;
8413;SDS011;4244;48.684;9.028;2023-12-20T06:38:37;1.20;;;0.70;;
8413;SDS011;4244;48.684;9.028;2023-12-20T06:41:02;1.30;;;1.00;;
8413;SDS011;4244;48.684;9.028;2023-12-20T06:43:28;0.90;;;0.70;;
8413;SDS011;4244;48.684;9.028;2023-12-20T06:45:54;1.00;;;0.60;;
8413;SDS011;4244;48.684;9.028;2023-12-20T06:48:20;1.10;;;0.77;;
8413;SDS011;4244;48.684;9.028;2023-12-20T06:50:45;0.93;;;0.50;;
8413;SDS011;4244;48.684;9.028;2023-12-20T06:53:11;1.00;;;0.50;;
8413;SDS011;4244;48.684;9.028;2023-12-20T06:55:37;1.03;;;0.70;;
8413;SDS011;4244;48.684;9.028;2023-12-20T06:58:03;1.30;;;0.80;;
8413;SDS011;4244;48.684;9.028;2023-12-20T07:00:29;1.10;;;0.47;;
8413;SDS011;4244;48.684;9.028;2023-12-20T07:02:55;0.90;;;0.57;;
8413;SDS011;4244;48.684;9.028;2023-12-20T07:05:20;1.20;;;0.60;;
8413;SDS011;4244;48.684;9.028;2023-12-20T07:07:46;1.07;;;0.73;;
8413;SDS011;4244;48.684;9.028;2023-12-20T07:10:13;0.80;;;0.60;;
8413;SDS011;4244;48.684;9.028;2023-12-20T07:12:38;1.07;;;0.60;;
8413;SDS011;4244;48.684;9.028;2023-12-20T07:15:04;1.10;;;0.60;;
8413;SDS011;4244;48.684;9.028;2023-12-20T07:17:33;1.67;;;0.80;;
8413;SDS011;4244;48.684;9.028;2023-12-20T07:19:59;1.20;;;0.73;;
8413;SDS011;4244;48.684;9.028;2023-12-20T07:22:28;1.47;;;0.80;;
8413;SDS011;4244;48.684;9.028;2023-12-20T07:24:56;1.33;;;0.87;;
8413;SDS011;4244;48.684;9.028;2023-12-20T07:27:22;1.87;;;0.60;;
8413;SDS011;4244;48.684;9.028;2023-12-20T07:29:48;1.20;;;0.70;;
8413;SDS011;4244;48.684;9.028;2023-12-20T07:32:13;1.63;;;0.73;;
8413;SDS011;4244;48.684;9.028;2023-12-20T07:34:39;1.40;;;0.63;;
8413;SDS011;4244;48.684;9.028;2023-12-20T07:37:04;1.30;;;0.80;;
8413;SDS011;4244;48.684;9.028;2023-12-20T07:39:30;1.90;;;1.00;;
8413;SDS011;4244;48.684;9.028;2023-12-20T07:41:55;1.23;;;0.90;;
8413;SDS011;4244;48.684;9.028;2023-12-20T07:44:21;1.50;;;1.10;;
8413;SDS011;4244;48.684;9.028;2023-12-20T07:46:46;1.97;;;1.00;;
8413;SDS011;4244;48.684;9.028;2023-12-20T07:49:13;1.43;;;1.20;;
8413;SDS011;4244;48.684;9.028;2023-12-20T07:51:39;1.23;;;0.97;;
8413;SDS011;4244;48.684;9.028;2023-12-20T07:54:04;1.60;;;1.30;;
8413;SDS011;4244;48.684;9.028;2023-12-20T07:56:30;1.53;;;1.30;;
8413;SDS011;4244;48.684;9.028;2023-12-20T07:58:56;1.90;;;1.40;;
8413;SDS011;4244;48.684;9.028;2023-12-20T08:01:21;2.70;;;1.93;;
8413;SDS011;4244;48.684;9.028;2023-12-20T08:03:48;1.30;;;1.17;;
8413;SDS011;4244;48.684;9.028;2023-12-20T08:06:14;3.30;;;1.60;;
8413;SDS011;4244;48.684;9.028;2023-12-20T08:08:39;2.63;;;1.50;;
8413;SDS011;4244;48.684;9.028;2023-12-20T08:11:05;2.03;;;1.77;;
8413;SDS011;4244;48.684;9.028;2023-12-20T08:13:30;1.87;;;1.77;;
8413;SDS011;4244;48.684;9.028;2023-12-20T08:15:56;2.33;;;2.13;;
8413;SDS011;4244;48.684;9.028;2023-12-20T08:18:21;2.17;;;1.80;;
8413;SDS011;4244;48.684;9.028;2023-12-20T08:20:48;2.27;;;1.80;;
8413;SDS011;4244;48.684;9.028;2023-12-20T08:23:13;2.13;;;1.93;;
8413;SDS011;4244;48.684;9.028;2023-12-20T08:25:40;1.90;;;1.73;;
8413;SDS011;4244;48.684;9.028;2023-12-20T08:28:05;2.90;;;2.33;;
8413;SDS011;4244;48.684;9.028;2023-12-20T08:30:31;2.07;;;1.87;;
8413;SDS011;4244;48.684;9.028;2023-12-20T08:32:59;2.30;;;1.97;;
8413;SDS011;4244;48.684;9.028;2023-12-20T08:35:25;2.97;;;2.20;;
8413;SDS011;4244;48.684;9.028;2023-12-20T08:37:50;2.73;;;2.07;;
8413;SDS011;4244;48.684;9.028;2023-12-20T08:40:16;3.00;;;1.80;;
8413;SDS011;4244;48.684;9.028;2023-12-20T08:42:41;1.93;;;1.73;;
8413;SDS011;4244;48.684;9.028;2023-12-20T08:45:07;2.17;;;1.53;;
8413;SDS011;4244;48.684;9.028;2023-12-20T08:47:33;2.30;;;2.10;;
8413;SDS011;4244;48.684;9.028;2023-12-20T08:49:58;3.53;;;1.90;;
8413;SDS011;4244;48.684;9.028;2023-12-20T08:52:26;1.80;;;1.70;;
8413;SDS011;4244;48.684;9.028;2023-12-20T08:54:52;2.10;;;1.90;;
8413;SDS011;4244;48.684;9.028;2023-12-20T08:57:21;2.20;;;1.90;;
8413;SDS011;4244;48.684;9.028;2023-12-20T08:59:48;2.60;;;2.00;;
8413;SDS011;4244;48.684;9.028;2023-12-20T09:02:20;4.70;;;2.27;;
8413;SDS011;4244;48.684;9.028;2023-12-20T09:04:45;2.67;;;1.50;;
8413;SDS011;4244;48.684;9.028;2023-12-20T09:07:20;1.93;;;1.70;;
8413;SDS011;4244;48.684;9.028;2023-12-20T09:09:47;2.20;;;1.43;;
8413;SDS011;4244;48.684;9.028;2023-12-20T09:12:12;2.60;;;2.00;;
8413;SDS011;4244;48.684;9.028;2023-12-20T09:14:38;2.50;;;1.80;;
8413;SDS011;4244;48.684;9.028;2023-12-20T09:17:03;3.30;;;2.20;;
8413;SDS011;4244;48.684;9.028;2023-12-20T09:19:29;5.00;;;2.00;;
8413;SDS011;4244;48.684;9.028;2023-12-20T09:21:55;3.33;;;2.00;;
8413;SDS011;4244;48.684;9.028;2023-12-20T09:24:20;3.40;;;1.73;;
8413;SDS011;4244;48.684;9.028;2023-12-20T09:26:46;6.90;;;1.93;;
8413;SDS011;4244;48.684;9.028;2023-12-20T09:29:11;4.00;;;1.50;;
8413;SDS011;4244;48.684;9.028;2023-12-20T09:31:40;7.30;;;1.80;;
8413;SDS011;4244;48.684;9.028;2023-12-20T09:34:06;11.80;;;1.90;;
8413;SDS011;4244;48.684;9.028;2023-12-20T09:36:32;2.40;;;1.67;;
8413;SDS011;4244;48.684;9.028;2023-12-20T09:39:01;5.50;;;1.60;;
8413;SDS011;4244;48.684;9.028;2023-12-20T09:41:26;5.13;;;1.80;;
8413;SDS011;4244;48.684;9.028;2023-12-20T09:43:53;7.30;;;1.77;;
8413;SDS011;4244;48.684;9.028;2023-12-20T09:46:20;5.20;;;1.70;;
8413;SDS011;4244;48.684;9.028;2023-12-20T09:48:49;4.07;;;1.30;;
8413;SDS011;4244;48.684;9.028;2023-12-20T09:54:38;5.27;;;1.37;;
8413;SDS011;4244;48.684;9.028;2023-12-20T09:57:03;4.03;;;1.63;;
8413;SDS011;4244;48.684;9.028;2023-12-20T09:59:29;3.33;;;1.50;;
8413;SDS011;4244;48.684;9.028;2023-12-20T10:01:55;9.30;;;1.77;;
8413;SDS011;4244;48.684;9.028;2023-12-20T10:04:22;2.50;;;1.00;;
8413;SDS011;4244;48.684;9.028;2023-12-20T10:06:47;3.93;;;2.83;;
8413;SDS011;4244;48.684;9.028;2023-12-20T10:09:13;9.43;;;1.53;;
8413;SDS011;4244;48.684;9.028;2023-12-20T10:11:39;5.20;;;1.47;;
8413;SDS011;4244;48.684;9.028;2023-12-20T10:14:05;5.00;;;1.10;;
8413;SDS011;4244;48.684;9.028;2023-12-20T10:16:31;4.33;;;1.80;;
8413;SDS011;4244;48.684;9.028;2023-12-20T10:18:58;2.50;;;1.30;;
8413;SDS011;4244;48.684;9.028;2023-12-20T10:21:23;2.80;;;1.40;;
8413;SDS011;4244;48.684;9.028;2023-12-20T10:23:52;3.07;;;1.20;;
8413;SDS011;4244;48.684;9.028;2023-12-20T10:26:24;2.63;;;1.30;;
8413;SDS011;4244;48.684;9.028;2023-12-20T10:28:51;7.00;;;2.03;;
8413;SDS011;4244;48.684;9.028;2023-12-20T10:31:28;3.87;;;1.30;;
8413;SDS011;4244;48.684;9.028;2023-12-20T10:33:56;4.53;;;1.60;;
8413;SDS011;4244;48.684;9.028;2023-12-20T10:36:22;3.53;;;1.30;;
8413;SDS011;4244;48.684;9.028;2023-12-20T10:38:49;3.37;;;1.60;;
8413;SDS011;4244;48.684;9.028;2023-12-20T10:41:16;3.50;;;2.17;;
8413;SDS011;4244;48.684;9.028;2023-12-20T10:43:43;3.07;;;1.80;;
8413;SDS011;4244;48.684;9.028;2023-12-20T10:46:10;4.13;;;2.00;;
8413;SDS011;4244;48.684;9.028;2023-12-20T10:48:36;3.50;;;1.87;;
8413;SDS011;4244;48.684;9.028;2023-12-20T10:51:03;1.97;;;1.17;;
8413;SDS011;4244;48.684;9.028;2023-12-20T10:53:30;4.67;;;2.00;;
8413;SDS011;4244;48.684;9.028;2023-12-20T10:55:56;2.80;;;1.53;;
8413;SDS011;4244;48.684;9.028;2023-12-20T10:58:25;3.63;;;1.60;;
8413;SDS011;4244;48.684;9.028;2023-12-20T11:00:52;2.27;;;1.43;;
8413;SDS011;4244;48.684;9.028;2023-12-20T11:03:25;3.10;;;1.73;;
8413;SDS011;4244;48.684;9.028;2023-12-20T11:05:58;3.50;;;1.37;;
8413;SDS011;4244;48.684;9.028;2023-12-20T11:08:36;5.53;;;2.17;;
8413;SDS011;4244;48.684;9.028;2023-12-20T11:16:20;3.97;;;1.50;;
8413;SDS011;4244;48.684;9.028;2023-12-20T11:18:46;6.30;;;2.23;;
8413;SDS011;4244;48.684;9.028;2023-12-20T11:21:11;7.47;;;1.73;;
8413;SDS011;4244;48.684;9.028;2023-12-20T11:23:39;5.63;;;1.47;;
8413;SDS011;4244;48.684;9.028;2023-12-20T11:26:07;4.73;;;1.47;;
8413;SDS011;4244;48.684;9.028;2023-12-20T11:28:33;3.57;;;2.10;;
8413;SDS011;4244;48.684;9.028;2023-12-20T11:31:00;3.33;;;1.60;;
8413;SDS011;4244;48.684;9.028;2023-12-20T11:33:30;3.63;;;1.90;;
8413;SDS011;4244;48.684;9.028;2023-12-20T11:36:12;5.27;;;2.50;;
8413;SDS011;4244;48.684;9.028;2023-12-20T11:38:38;4.57;;;2.33;;
8413;SDS011;4244;48.684;9.028;2023-12-20T11:41:07;3.10;;;1.83;;
8413;SDS011;4244;48.684;9.028;2023-12-20T11:43:37;3.57;;;2.10;;
8413;SDS011;4244;48.684;9.028;2023-12-20T11:46:07;4.50;;;1.47;;
8413;SDS011;4244;48.684;9.028;2023-12-20T11:48:34;4.30;;;1.63;;
8413;SDS011;4244;48.684;9.028;2023-12-20T11:51:02;3.00;;;1.63;;
8413;SDS011;4244;48.684;9.028;2023-12-20T11:53:28;5.17;;;1.80;;
8413;SDS011;4244;48.684;9.028;2023-12-20T11:55:58;8.10;;;1.47;;
8413;SDS011;4244;48.684;9.028;2023-12-20T11:58:24;4.00;;;1.60;;
8413;SDS011;4244;48.684;9.028;2023-12-20T12:00:50;4.80;;;2.30;;
8413;SDS011;4244;48.684;9.028;2023-12-20T12:03:16;7.50;;;4.07;;
8413;SDS011;4244;48.684;9.028;2023-12-20T12:05:42;8.23;;;5.07;;
8413;SDS011;4244;48.684;9.028;2023-12-20T12:08:07;9.93;;;4.83;;
8413;SDS011;4244;48.684;9.028;2023-12-20T12:10:33;4.43;;;3.20;;
8413;SDS011;4244;48.684;9.028;2023-12-20T12:12:58;3.50;;;2.20;;
8413;SDS011;4244;48.684;9.028;2023-12-20T12:15:25;5.37;;;2.20;;
8413;SDS011;4244;48.684;9.028;2023-12-20T12:17:52;4.07;;;2.33;;
8413;SDS011;4244;48.684;9.028;2023-12-20T12:20:19;5.30;;;1.70;;
8413;SDS011;4244;48.684;9.028;2023-12-20T12:22:45;5.70;;;1.67;;
8413;SDS011;4244;48.684;9.028;2023-12-20T12:25:12;5.63;;;2.10;;
8413;SDS011;4244;48.684;9.028;2023-12-20T12:27:41;4.70;;;1.63;;
8413;SDS011;4244;48.684;9.028;2023-12-20T12:30:08;3.70;;;2.00;;
8413;SDS011;4244;48.684;9.028;2023-12-20T12:32:34;3.30;;;1.90;;
8413;SDS011;4244;48.684;9.028;2023-12-20T12:35:02;3.43;;;1.60;;
8413;SDS011;4244;48.684;9.028;2023-12-20T12:37:28;4.77;;;1.93;;
8413;SDS011;4244;48.684;9.028;2023-12-20T12:39:54;5.23;;;2.73;;
8413;SDS011;4244;48.684;9.028;2023-12-20T12:42:20;4.53;;;1.83;;
8413;SDS011;4244;48.684;9.028;2023-12-20T12:44:46;3.53;;;2.13;;
8413;SDS011;4244;48.684;9.028;2023-12-20T12:47:12;4.20;;;2.10;;
8413;SDS011;4244;48.684;9.028;2023-12-20T12:49:37;2.53;;;1.57;;
8413;SDS011;4244;48.684;9.028;2023-12-20T12:52:05;4.10;;;2.07;;
8413;SDS011;4244;48.684;9.028;2023-12-20T12:54:30;4.93;;;1.40;;
8413;SDS011;4244;48.684;9.028;2023-12-20T12:56:56;5.27;;;1.60;;
8413;SDS011;4244;48.684;9.028;2023-12-20T12:59:23;2.93;;;1.83;;
8413;SDS011;4244;48.684;9.028;2023-12-20T13:01:48;3.53;;;1.40;;
8413;SDS011;4244;48.684;9.028;2023-12-20T13:04:14;4.50;;;1.53;;
8413;SDS011;4244;48.684;9.028;2023-12-20T13:06:39;3.40;;;1.50;;
8413;SDS011;4244;48.684;9.028;2023-12-20T13:09:07;3.83;;;1.70;;
8413;SDS011;4244;48.684;9.028;2023-12-20T13:11:34;4.80;;;1.80;;
8413;SDS011;4244;48.684;9.028;2023-12-20T13:14:00;4.00;;;1.77;;
8413;SDS011;4244;48.684;9.028;2023-12-20T13:16:26;3.13;;;2.00;;
8413;SDS011;4244;48.684;9.028;2023-12-20T13:18:53;5.53;;;1.87;;
8413;SDS011;4244;48.684;9.028;2023-12-20T13:21:21;3.90;;;1.47;;
8413;SDS011;4244;48.684;9.028;2023-12-20T13:23:48;2.20;;;1.40;;
8413;SDS011;4244;48.684;9.028;2023-12-20T13:26:14;2.90;;;1.53;;
8413;SDS011;4244;48.684;9.028;2023-12-20T13:28:39;2.03;;;1.17;;
8413;SDS011;4244;48.684;9.028;2023-12-20T13:31:05;2.83;;;1.23;;
8413;SDS011;4244;48.684;9.028;2023-12-20T13:33:30;4.53;;;1.20;;
8413;SDS011;4244;48.684;9.028;2023-12-20T13:35:56;5.80;;;1.73;;
8413;SDS011;4244;48.684;9.028;2023-12-20T13:38:23;1.80;;;1.10;;
8413;SDS011;4244;48.684;9.028;2023-12-20T13:40:48;1.90;;;1.20;;
8413;SDS011;4244;48.684;9.028;2023-12-20T13:43:14;3.13;;;1.30;;
8413;SDS011;4244;48.684;9.028;2023-12-20T13:45:43;4.20;;;2.57;;
8413;SDS011;4244;48.684;9.028;2023-12-20T13:48:08;4.53;;;2.17;;
8413;SDS011;4244;48.684;9.028;2023-12-20T13:50:34;6.80;;;2.43;;
8413;SDS011;4244;48.684;9.028;2023-12-20T13:52:59;4.00;;;1.70;;
8413;SDS011;4244;48.684;9.028;2023-12-20T13:55:25;3.40;;;1.73;;
8413;SDS011;4244;48.684;9.028;2023-12-20T13:57:52;5.73;;;1.80;;
8413;SDS011;4244;48.684;9.028;2023-12-20T14:00:17;2.70;;;1.50;;
8413;SDS011;4244;48.684;9.028;2023-12-20T14:02:43;4.57;;;1.97;;
8413;SDS011;4244;48.684;9.028;2023-12-20T14:05:09;3.07;;;1.20;;
8413;SDS011;4244;48.684;9.028;2023-12-20T14:07:35;3.27;;;1.77;;
8413;SDS011;4244;48.684;9.028;2023-12-20T14:10:03;5.70;;;1.80;;
8413;SDS011;4244;48.684;9.028;2023-12-20T14:12:29;3.83;;;1.67;;
8413;SDS011;4244;48.684;9.028;2023-12-20T14:14:54;3.60;;;1.30;;
8413;SDS011;4244;48.684;9.028;2023-12-20T14:17:21;2.60;;;1.33;;
8413;SDS011;4244;48.684;9.028;2023-12-20T14:19:46;2.30;;;1.40;;
8413;SDS011;4244;48.684;9.028;2023-12-20T14:22:12;5.33;;;1.23;;
8413;SDS011;4244;48.684;9.028;2023-12-20T14:24:41;4.50;;;1.77;;
8413;SDS011;4244;48.684;9.028;2023-12-20T14:27:07;2.60;;;1.60;;
8413;SDS011;4244;48.684;9.028;2023-12-20T14:29:34;2.77;;;1.43;;
8413;SDS011;4244;48.684;9.028;2023-12-20T14:32:00;5.03;;;1.50;;
8413;SDS011;4244;48.684;9.028;2023-12-20T14:34:27;3.70;;;1.70;;
8413;SDS011;4244;48.684;9.028;2023-12-20T14:36:53;3.50;;;1.50;;
8413;SDS011;4244;48.684;9.028;2023-12-20T14:39:19;5.33;;;1.80;;
8413;SDS011;4244;48.684;9.028;2023-12-20T14:41:44;5.10;;;2.53;;
8413;SDS011;4244;48.684;9.028;2023-12-20T14:44:10;8.50;;;3.50;;
8413;SDS011;4244;48.684;9.028;2023-12-20T14:46:35;4.17;;;2.33;;
8413;SDS011;4244;48.684;9.028;2023-12-20T14:49:01;3.90;;;2.30;;
8413;SDS011;4244;48.684;9.028;2023-12-20T14:51:27;3.77;;;2.10;;
8413;SDS011;4244;48.684;9.028;2023-12-20T14:53:53;3.20;;;1.77;;
8413;SDS011;4244;48.684;9.028;2023-12-20T14:56:18;3.43;;;1.50;;
8413;SDS011;4244;48.684;9.028;2023-12-20T14:58:45;3.80;;;1.73;;
8413;SDS011;4244;48.684;9.028;2023-12-20T15:01:11;2.50;;;1.40;;
8413;SDS011;4244;48.684;9.028;2023-12-20T15:03:36;2.30;;;1.50;;
8413;SDS011;4244;48.684;9.028;2023-12-20T15:06:04;3.80;;;1.80;;
8413;SDS011;4244;48.684;9.028;2023-12-20T15:08:29;3.97;;;1.83;;
8413;SDS011;4244;48.684;9.028;2023-12-20T15:10:55;5.83;;;2.50;;
8413;SDS011;4244;48.684;9.028;2023-12-20T15:13:21;3.23;;;2.30;;
8413;SDS011;4244;48.684;9.028;2023-12-20T15:15:46;4.70;;;2.60;;
8413;SDS011;4244;48.684;9.028;2023-12-20T15:18:12;4.30;;;2.23;;
8413;SDS011;4244;48.684;9.028;2023-12-20T15:20:38;3.20;;;2.10;;